Port Hardy Airport
CYZT : now visible

Airfield :











YOU CAN JOIN US ON...

 
LOGIN :

Register | Disclaimer

   EN    FR    IT 

 









Legend :    VFR   Marginal VFR   IFR   Intensive IFR   Very Intensive IFR
Visi :
Ceiling :
>= 8 km
>= 3000ft
5 to 8 km
1000 to 3000 ft
1500m to 5 km
500 to 1000 ft
800 to 1500m
200 to 500 ft
< 800m
< 200 ft
Symbols :   Thunderstorms  Fog  Heavy snow  Heavy precipitations  Wind > 20 kt






- Airport Elevation : 71 ft
- IATA code : YZT


CYZT - Port Hardy

METAR N/A
TAF TAF CYZT
Valid from the 24 at 19:00 until the 25 at 07:00 UTC


241840Z 2419/2507 05005KT P6SM SCT020 BKN060
TEMPO 2419/2423 P6SM -SHRA BKN020 OVC060
FM242300 33005KT P6SM FEW020 SCT040
TEMPO 2423/2507 SCT020 BKN040
BECMG 2500/2502 33010KT RMK NXT FCST BY 250100Z
CZVR FIR / North America



MET'MAP, your aeronautical weather chart ! - Copyright ORBIFLY December 2007 - Disclaimer

ORBIFLY MET'MAP TEAM :

Programming & Development : Alexandra Zaïnal
Original concept : Baudouin d'Aumeries
Technical & hardware support : Manuel Goepfert
Assistance : Marc-Olivier Méhu




SOURCES & CREDITS :

   NOAA       Earth
Advisory